• Join FlightAware (Why Join?)
  • Login
  • US Flag 
09:12AM EDT


 

Airport Tracker/Info


-or-


 

Live Flight TrackerFlight Track Log ✈ FLG3630 ✈ 21-Jun-2013 ✈ KMSP - KFAR

Flight Track Log - Related Links

Times and Time Zones

All times are in EDT time to prevent confusion due to time zone crossing. See the FLG3630 flight status page for this flight to view local times or setup timezone preferences in your user account.

Time Position Orientation Groundspeed Altitude Reporting Facility
EDT Latitude Longitude Course Direction KTS MPH feet Rate Location/Type
10:49AM 44.9167 -93.2333 295° West 166 191 2,300  Level Minneapolis TRACON
10:49AM 44.9369 -93.2414 344° North 186 214 3,200 1,860 Climbing Minneapolis Center
10:50AM 44.9925 -93.2483 355° North 198 228 5,400 2,280 Climbing Minneapolis Center
10:51AM 45.1139 -93.3521 332° Northwest  Level FlightAware Approximate
10:51AM 45.0814 -93.2475 360° North 269 310 8,000  Level Minneapolis Center
10:52AM 45.1690 -93.4467 302° West  Level FlightAware Approximate
10:52AM 45.1361 -93.3050 323° Northwest 270 311 10,200  Level Minneapolis Center
10:53AM 45.2131 -93.5557 295° West  Level FlightAware Approximate
10:53AM 45.1747 -93.4033 299° West 290 334 11,400  Level Minneapolis Center
10:54AM 45.2510 -93.6695 295° West  Level FlightAware Approximate
10:54AM 45.2258 -93.4969 308° West 300 345 13,100  Level Minneapolis Center
10:55AM 45.2775 -93.5925 308° West 306 352 14,700 1,560 Climbing Minneapolis Center
10:56AM 45.3403 -93.7081 308° West 309 356 16,400 1,380 Climbing Minneapolis Center
10:58AM 45.3933 -93.8069 307° West 315 362 17,600 1,080 Climbing Minneapolis Center
10:59AM 45.4472 -93.9086 307° West 320 368 18,700 1,020 Climbing Minneapolis Center
11:00AM 45.5031 -94.0114 308° West 326 375 19,800 600 Climbing Minneapolis Center
11:01AM 45.5714 -94.1406 307° West 337 388 20,000 60 Climbing Minneapolis Center
11:02AM 45.6281 -94.2503 306° West 343 395 20,000  Level Minneapolis Center
11:03AM 45.6861 -94.3589 307° West 345 397 20,000  Level Minneapolis Center
11:04AM 45.7444 -94.4719 307° West 351 404 20,000  Level Minneapolis Center
11:05AM 45.8019 -94.5836 306° West 351 404 20,000  Level Minneapolis Center
11:06AM 45.8608 -94.6950 307° West 351 404 20,000  Level Minneapolis Center
11:07AM 45.9311 -94.8317 307° West 356 410 20,000  Level Minneapolis Center
11:08AM 45.9900 -94.9436 307° West 354 407 20,000  Level Minneapolis Center
11:09AM 46.0447 -95.0500 307° West 358 412 20,000  Level Minneapolis Center
11:10AM 46.1147 -95.1908 306° West 361 415 20,000  Level Minneapolis Center
11:11AM 46.1739 -95.3061 307° West 361 415 20,000  Level Minneapolis Center
11:12AM 46.2342 -95.4242 306° West 361 415 20,000  Level Minneapolis Center
11:13AM 46.2925 -95.5406 306° West 364 419 20,000  Level Minneapolis Center
11:14AM 46.3514 -95.6592 306° West 365 420 20,000  Level Minneapolis Center
11:15AM 46.4233 -95.8003 307° West 364 419 20,000 -540 Level Minneapolis Center
11:16AM 46.4797 -95.9128 306° West 368 423 18,900 -1,440 Descending Minneapolis Center
11:17AM 46.5278 -96.0100 306° West 339 390 17,100 -2,040 Descending Minneapolis Center
11:18AM 46.5911 -96.1386 306° West 322 371 14,700 -2,220 Descending Minneapolis Center
11:19AM 46.6392 -96.2408 304° West 295 339 12,600 -2,040 Descending Minneapolis Center
11:20AM 46.6733 -96.3517 294° West 285 328 10,500 -2,040 Descending Minneapolis Center
11:21AM 46.7081 -96.4619 295° West 286 329 8,400 -1,980 Descending Minneapolis Center
11:22AM 46.7394 -96.5611 295° West 282 325 6,500 -1,980 Descending Minneapolis Center
11:23AM 46.7719 -96.6669 294° West 275 316 4,400 -2,040 Descending Minneapolis Center